createdAt,value
2023-02-26T00:00:25.513Z,41.48
2023-02-26T00:01:31.141Z,41.57
2023-02-26T00:02:32.844Z,41.24
2023-02-26T00:03:35.496Z,41.22
2023-02-26T00:04:37.295Z,41.66
2023-02-26T00:05:39.942Z,41.40
2023-02-26T00:06:52.558Z,41.37
2023-02-26T00:07:56.194Z,41.77
2023-02-26T00:08:59.344Z,41.37
2023-02-26T00:10:02.574Z,41.71
2023-02-26T00:11:07.225Z,41.27
2023-02-26T00:12:12.306Z,41.52
2023-02-26T00:13:14.408Z,41.43
2023-02-26T00:14:17.902Z,41.70
2023-02-26T00:15:20.443Z,41.45
2023-02-26T00:16:28.358Z,41.54
2023-02-26T00:17:36.551Z,41.59
2023-02-26T00:18:39.796Z,41.51
2023-02-26T00:19:41.887Z,41.69
2023-02-26T00:20:45.122Z,41.95
2023-02-26T00:21:47.389Z,41.56
2023-02-26T00:22:50.609Z,41.38
2023-02-26T00:23:52.623Z,41.58
2023-02-26T00:24:56.936Z,41.67
2023-02-26T00:25:58.785Z,42.14
2023-02-26T00:27:01.522Z,41.81
2023-02-26T00:28:03.799Z,42.12
2023-02-26T00:29:07.019Z,41.76
2023-02-26T00:30:10.072Z,41.81
2023-02-26T00:31:14.901Z,41.87
2023-02-26T00:32:18.244Z,41.30
2023-02-26T00:33:21.643Z,42.05
2023-02-26T00:34:23.905Z,41.91
2023-02-26T00:35:27.462Z,42.17
2023-02-26T00:36:35.176Z,41.78
2023-02-26T00:37:51.443Z,41.87
2023-02-26T00:39:02.179Z,41.82
2023-02-26T00:40:16.091Z,41.95
2023-02-26T00:41:18.363Z,41.87
2023-02-26T00:42:21.595Z,41.90
2023-02-26T00:43:26.159Z,41.91
2023-02-26T00:44:29.399Z,41.93
2023-02-26T00:45:32.116Z,41.77
2023-02-26T00:46:40.651Z,42.06
2023-02-26T00:47:48.702Z,42.05
2023-02-26T00:48:57.180Z,41.78
2023-02-26T00:50:06.183Z,42.22
2023-02-26T00:51:13.751Z,41.78
2023-02-26T00:52:21.101Z,41.54
2023-02-26T00:53:28.885Z,41.74
2023-02-26T00:54:31.204Z,42.12
2023-02-26T00:55:35.246Z,42.16
2023-02-26T00:56:37.643Z,41.76
2023-02-26T00:57:40.578Z,42.23
2023-02-26T00:58:43.321Z,42.10
2023-02-26T00:59:45.028Z,41.96
2023-02-26T01:00:47.764Z,41.80
2023-02-26T01:01:50.163Z,41.56
2023-02-26T01:02:53.521Z,41.96
2023-02-26T01:03:56.338Z,42.22
2023-02-26T01:04:59.498Z,41.70
2023-02-26T01:06:01.538Z,41.90
2023-02-26T01:07:04.765Z,41.87
2023-02-26T01:08:12.948Z,42.03
2023-02-26T01:09:22.842Z,41.62
2023-02-26T01:10:24.881Z,41.64
2023-02-26T01:11:29.453Z,41.61
2023-02-26T01:12:31.705Z,41.81
2023-02-26T01:13:34.799Z,41.67
2023-02-26T01:14:38.077Z,41.53
2023-02-26T01:15:45.789Z,41.38
2023-02-26T01:16:51.686Z,42.15
2023-02-26T01:17:57.544Z,41.44
2023-02-26T01:19:03.679Z,42.21
2023-02-26T01:20:11.269Z,41.36
2023-02-26T01:21:15.574Z,41.32
2023-02-26T01:22:22.074Z,41.40
2023-02-26T01:23:25.812Z,41.08
2023-02-26T01:24:30.383Z,41.35
2023-02-26T01:25:38.701Z,41.46
2023-02-26T01:26:42.126Z,42.19
2023-02-26T01:27:45.357Z,41.58
2023-02-26T01:28:47.590Z,42.15
2023-02-26T01:29:50.619Z,41.64
2023-02-26T01:30:54.708Z,41.81
2023-02-26T01:32:02.659Z,41.99
2023-02-26T01:33:10.274Z,42.01
2023-02-26T01:34:18.319Z,41.97
2023-02-26T01:35:29.219Z,41.80
2023-02-26T01:36:35.127Z,42.06
2023-02-26T01:37:43.987Z,41.75
2023-02-26T01:38:54.092Z,42.17
2023-02-26T01:40:22.526Z,42.38
2023-02-26T01:41:30.297Z,41.79
2023-02-26T01:42:37.196Z,41.86
2023-02-26T01:43:44.506Z,42.37
2023-02-26T01:44:57.194Z,41.93
2023-02-26T01:46:05.448Z,42.52
2023-02-26T01:47:16.102Z,41.78
2023-02-26T01:48:22.316Z,42.55
2023-02-26T01:49:25.983Z,42.47
2023-02-26T01:50:29.911Z,42.22
2023-02-26T01:51:45.909Z,41.89
2023-02-26T01:53:18.366Z,42.33
2023-02-26T01:54:22.490Z,42.03
2023-02-26T01:55:25.977Z,41.79
2023-02-26T01:56:28.911Z,42.38
2023-02-26T01:57:30.617Z,42.69
2023-02-26T01:58:37.112Z,42.15
2023-02-26T01:59:41.382Z,42.77
2023-02-26T02:00:44.138Z,42.86
2023-02-26T02:01:45.877Z,42.28
2023-02-26T02:02:48.621Z,42.97
2023-02-26T02:03:50.421Z,42.80
2023-02-26T02:04:53.229Z,42.96
2023-02-26T02:05:58.508Z,42.80
2023-02-26T02:07:01.899Z,42.45
2023-02-26T02:08:03.749Z,42.87
2023-02-26T02:09:07.596Z,42.89
2023-02-26T02:10:10.401Z,43.02
2023-02-26T02:11:14.667Z,42.41
2023-02-26T02:12:26.603Z,43.20
2023-02-26T02:13:42.752Z,42.71
2023-02-26T02:14:54.966Z,42.43
2023-02-26T02:16:04.332Z,42.95
2023-02-26T02:17:12.830Z,43.02
2023-02-26T02:18:20.046Z,42.97
2023-02-26T02:19:40.493Z,42.67
2023-02-26T02:21:17.252Z,42.57
2023-02-26T02:22:40.953Z,43.26
2023-02-26T02:23:46.836Z,43.36
2023-02-26T02:24:58.532Z,42.97
2023-02-26T02:26:34.561Z,43.37
2023-02-26T02:27:43.146Z,43.19
2023-02-26T02:29:04.705Z,42.90
2023-02-26T02:30:16.094Z,43.26
2023-02-26T02:31:23.556Z,42.83
2023-02-26T02:32:28.815Z,43.10
2023-02-26T02:33:35.805Z,43.08
2023-02-26T02:34:41.637Z,43.67
2023-02-26T02:35:47.456Z,42.97
2023-02-26T02:36:53.092Z,43.40
2023-02-26T02:37:59.022Z,43.04
2023-02-26T02:39:03.766Z,43.48
2023-02-26T02:40:11.441Z,42.98
2023-02-26T02:41:18.451Z,43.52
2023-02-26T02:42:27.088Z,43.52
2023-02-26T02:43:33.881Z,43.58
2023-02-26T02:44:42.121Z,43.92
2023-02-26T02:45:46.925Z,43.60
2023-02-26T02:46:53.497Z,43.94
2023-02-26T02:48:00.530Z,43.73
2023-02-26T02:49:04.309Z,43.89
2023-02-26T02:50:10.830Z,44.33
2023-02-26T02:51:14.266Z,44.39
2023-02-26T02:52:19.171Z,44.57
2023-02-26T02:53:23.408Z,44.62
2023-02-26T02:54:28.834Z,44.49
2023-02-26T02:55:33.669Z,45.37
2023-02-26T02:56:39.785Z,44.97
2023-02-26T02:57:45.650Z,45.20
2023-02-26T02:58:50.550Z,45.10
2023-02-26T02:59:54.862Z,45.18
2023-02-26T03:01:00.160Z,45.37
2023-02-26T03:02:08.672Z,45.47
2023-02-26T03:03:17.650Z,45.87
2023-02-26T03:04:19.485Z,45.91
2023-02-26T03:05:22.240Z,45.81
2023-02-26T03:06:24.623Z,45.36
2023-02-26T03:07:27.385Z,45.26
2023-02-26T03:08:32.747Z,45.59
2023-02-26T03:09:35.570Z,46.02
2023-02-26T03:10:37.652Z,45.27
2023-02-26T03:11:40.532Z,45.40
2023-02-26T03:12:42.271Z,46.08
2023-02-26T03:13:45.917Z,45.53
2023-02-26T03:14:47.746Z,46.01
2023-02-26T03:15:57.096Z,45.52
2023-02-26T03:17:11.857Z,45.77
2023-02-26T03:18:20.794Z,45.54
2023-02-26T03:19:26.728Z,45.27
2023-02-26T03:20:34.571Z,45.51
2023-02-26T03:21:40.312Z,45.68
2023-02-26T03:22:50.683Z,45.12
2023-02-26T03:23:59.626Z,45.85
2023-02-26T03:25:07.408Z,45.88
2023-02-26T03:26:14.446Z,45.61
2023-02-26T03:27:22.117Z,45.32
2023-02-26T03:28:27.562Z,45.55
2023-02-26T03:29:36.346Z,45.54
2023-02-26T03:30:39.657Z,45.14
2023-02-26T03:31:49.210Z,45.72
2023-02-26T03:32:58.629Z,45.80
2023-02-26T03:34:04.131Z,45.73
2023-02-26T03:35:08.843Z,46.07
2023-02-26T03:36:15.243Z,45.84
2023-02-26T03:37:21.330Z,45.89
2023-02-26T03:38:28.987Z,46.40
2023-02-26T03:39:34.597Z,46.24
2023-02-26T03:40:40.903Z,46.41
2023-02-26T03:41:45.163Z,46.26
2023-02-26T03:42:50.683Z,46.52
2023-02-26T03:43:55.876Z,46.54
2023-02-26T03:45:01.322Z,46.65
2023-02-26T03:46:06.909Z,46.82
2023-02-26T03:47:12.424Z,46.97
2023-02-26T03:48:19.654Z,46.83
2023-02-26T03:49:26.843Z,46.87
2023-02-26T03:50:32.985Z,46.99
2023-02-26T03:51:36.540Z,46.80
2023-02-26T03:52:40.865Z,46.96
2023-02-26T03:53:48.769Z,46.58
2023-02-26T03:54:55.305Z,47.09
2023-02-26T03:56:01.586Z,46.80
2023-02-26T03:57:03.582Z,47.06
2023-02-26T03:58:06.364Z,46.68
2023-02-26T03:59:08.358Z,47.10
2023-02-26T04:00:12.474Z,46.73
2023-02-26T04:01:18.683Z,46.74
2023-02-26T04:02:24.159Z,46.71
2023-02-26T04:03:29.238Z,46.53
2023-02-26T04:04:35.964Z,46.74
2023-02-26T04:05:40.695Z,46.68
2023-02-26T04:06:43.682Z,47.00
2023-02-26T04:07:45.968Z,46.67
2023-02-26T04:08:48.904Z,46.94
2023-02-26T04:09:51.942Z,46.75
2023-02-26T04:10:58.250Z,46.85
2023-02-26T04:11:59.937Z,46.68
2023-02-26T04:13:03.401Z,46.75
2023-02-26T04:14:05.191Z,47.09
2023-02-26T04:15:09.156Z,46.93
2023-02-26T04:16:10.939Z,47.01
2023-02-26T04:17:13.587Z,46.45
2023-02-26T04:18:15.287Z,46.96
2023-02-26T04:19:19.435Z,46.91
2023-02-26T04:20:21.551Z,46.91
2023-02-26T04:21:24.628Z,47.09
2023-02-26T04:22:26.616Z,47.02
2023-02-26T04:23:29.494Z,47.03
2023-02-26T04:24:31.207Z,47.44
2023-02-26T04:25:33.937Z,47.36
2023-02-26T04:26:35.691Z,47.42
2023-02-26T04:27:38.408Z,47.38
2023-02-26T04:28:40.129Z,47.26
2023-02-26T04:29:42.795Z,47.40
2023-02-26T04:30:44.600Z,47.60
2023-02-26T04:31:47.903Z,47.30
2023-02-26T04:32:49.700Z,47.18
2023-02-26T04:33:52.462Z,47.51
2023-02-26T04:34:55.621Z,47.43
2023-02-26T04:35:58.483Z,47.94
2023-02-26T04:37:01.230Z,47.39
2023-02-26T04:38:02.941Z,47.50
2023-02-26T04:39:05.813Z,47.87
2023-02-26T04:40:08.531Z,47.77
2023-02-26T04:41:11.387Z,47.67
2023-02-26T04:42:13.138Z,47.77
2023-02-26T04:43:15.782Z,47.78
2023-02-26T04:44:18.822Z,47.87
2023-02-26T04:45:20.526Z,47.92
2023-02-26T04:46:23.600Z,47.93
2023-02-26T04:47:25.474Z,48.08
2023-02-26T04:48:28.227Z,48.21
2023-02-26T04:49:30.179Z,48.41
2023-02-26T04:50:34.418Z,48.54
2023-02-26T04:51:36.143Z,47.98
2023-02-26T04:52:38.908Z,48.32
2023-02-26T04:53:40.600Z,48.22
2023-02-26T04:54:43.366Z,48.09
2023-02-26T04:55:47.690Z,48.28
2023-02-26T04:56:50.430Z,48.43
2023-02-26T04:57:52.846Z,48.07
2023-02-26T04:58:55.538Z,48.64
2023-02-26T04:59:57.245Z,48.38
2023-02-26T05:01:00.292Z,48.46
2023-02-26T05:02:02.660Z,48.66
2023-02-26T05:03:05.444Z,48.43
2023-02-26T05:04:07.280Z,48.67
2023-02-26T05:05:10.717Z,48.54
2023-02-26T05:06:14.846Z,48.66
2023-02-26T05:07:17.549Z,48.93
2023-02-26T05:08:19.374Z,48.87
2023-02-26T05:09:22.148Z,48.88
2023-02-26T05:10:24.089Z,48.95
2023-02-26T05:11:26.823Z,49.03
2023-02-26T05:12:28.563Z,48.88
2023-02-26T05:13:31.264Z,49.16
2023-02-26T05:14:32.993Z,49.18
2023-02-26T05:15:35.769Z,49.25
2023-02-26T05:16:37.488Z,49.17
2023-02-26T05:17:40.121Z,49.54
2023-02-26T05:18:41.897Z,49.49
2023-02-26T05:19:44.587Z,49.79
2023-02-26T05:20:46.289Z,49.79
2023-02-26T05:21:50.380Z,49.85
2023-02-26T05:22:52.086Z,50.13
2023-02-26T05:23:54.786Z,49.99
2023-02-26T05:24:56.505Z,50.34
2023-02-26T05:25:59.662Z,50.35
2023-02-26T05:27:01.396Z,50.27
2023-02-26T05:28:04.150Z,49.88
2023-02-26T05:29:06.823Z,50.40
2023-02-26T05:30:12.069Z,50.32
2023-02-26T05:31:13.917Z,50.33
2023-02-26T05:32:16.772Z,50.42
2023-02-26T05:33:18.722Z,50.02
2023-02-26T05:34:21.511Z,50.32
2023-02-26T05:35:23.280Z,50.26
2023-02-26T05:36:26.226Z,50.43
2023-02-26T05:37:29.571Z,50.67
2023-02-26T05:38:32.250Z,50.41
2023-02-26T05:39:34.077Z,50.22
2023-02-26T05:40:36.799Z,50.36
2023-02-26T05:41:38.524Z,50.72
2023-02-26T05:42:41.453Z,50.59
2023-02-26T05:43:43.214Z,50.74
2023-02-26T05:44:45.935Z,50.47
2023-02-26T05:45:50.719Z,50.70
2023-02-26T05:46:52.431Z,50.45
2023-02-26T05:47:55.114Z,50.66
2023-02-26T05:48:56.799Z,50.67
2023-02-26T05:49:59.431Z,51.01
2023-02-26T05:51:01.159Z,50.91
2023-02-26T05:52:03.824Z,50.59
2023-02-26T05:53:06.864Z,51.00
2023-02-26T05:54:09.883Z,51.13
2023-02-26T05:55:12.645Z,50.96
2023-02-26T05:56:16.907Z,50.90
2023-02-26T05:57:19.611Z,51.10
2023-02-26T05:58:22.482Z,51.17
2023-02-26T05:59:24.313Z,50.68
2023-02-26T06:00:27.260Z,51.09
2023-02-26T06:01:29.052Z,50.80
2023-02-26T06:02:31.730Z,51.22
2023-02-26T06:03:33.444Z,50.87
2023-02-26T06:04:36.823Z,51.25
2023-02-26T06:05:38.587Z,51.10
2023-02-26T06:06:41.339Z,50.74
2023-02-26T06:07:43.040Z,50.83
2023-02-26T06:08:47.267Z,50.95
2023-02-26T06:09:49.002Z,50.86
2023-02-26T06:10:52.210Z,50.71
2023-02-26T06:11:53.945Z,50.45
2023-02-26T06:12:56.642Z,50.67
2023-02-26T06:13:58.650Z,50.77
2023-02-26T06:15:01.357Z,50.78
2023-02-26T06:16:03.196Z,50.60
2023-02-26T06:17:06.690Z,50.47
2023-02-26T06:18:08.656Z,50.43
2023-02-26T06:19:11.358Z,50.59
2023-02-26T06:20:13.461Z,50.40
2023-02-26T06:21:16.267Z,50.62
2023-02-26T06:22:18.079Z,50.16
2023-02-26T06:23:20.879Z,50.24
2023-02-26T06:24:24.017Z,50.12
2023-02-26T06:25:26.745Z,50.05
2023-02-26T06:26:28.765Z,50.14
2023-02-26T06:27:31.797Z,50.55
2023-02-26T06:28:33.479Z,50.31
2023-02-26T06:29:37.587Z,50.34
2023-02-26T06:30:39.582Z,50.18
2023-02-26T06:31:42.391Z,50.36
2023-02-26T06:32:45.068Z,49.99
2023-02-26T06:33:47.882Z,50.02
2023-02-26T06:34:49.671Z,50.13
2023-02-26T06:35:52.902Z,50.04
2023-02-26T06:36:54.617Z,49.74
2023-02-26T06:37:57.354Z,50.02
2023-02-26T06:38:59.097Z,49.93
2023-02-26T06:40:03.839Z,49.92
2023-02-26T06:41:05.614Z,49.93
2023-02-26T06:42:08.299Z,49.66
2023-02-26T06:43:10.043Z,49.88
2023-02-26T06:44:13.199Z,50.07
2023-02-26T06:45:15.054Z,49.94
2023-02-26T06:46:17.726Z,49.95
2023-02-26T06:47:19.483Z,49.80
2023-02-26T06:48:22.201Z,49.50
2023-02-26T06:49:23.935Z,49.29
2023-02-26T06:50:26.629Z,49.44
2023-02-26T06:51:28.320Z,49.32
2023-02-26T06:52:31.200Z,49.64
2023-02-26T06:53:32.860Z,49.31
2023-02-26T06:54:35.672Z,49.25
2023-02-26T06:55:44.845Z,49.75
2023-02-26T06:56:46.550Z,49.35
2023-02-26T06:57:49.236Z,49.17
2023-02-26T06:58:51.161Z,48.86
2023-02-26T06:59:53.877Z,49.02
2023-02-26T07:00:56.825Z,49.20
2023-02-26T07:01:58.557Z,49.06
2023-02-26T07:03:01.333Z,49.13
2023-02-26T07:04:03.114Z,49.07
2023-02-26T07:05:06.485Z,49.02
2023-02-26T07:06:26.079Z,48.91
2023-02-26T07:07:30.095Z,49.03
2023-02-26T07:08:31.783Z,49.24
2023-02-26T07:09:34.463Z,49.22
2023-02-26T07:10:38.075Z,49.03
2023-02-26T07:11:40.860Z,49.01
2023-02-26T07:12:42.733Z,48.78
2023-02-26T07:13:45.482Z,48.77
2023-02-26T07:14:47.234Z,48.76
2023-02-26T07:15:49.882Z,48.42
2023-02-26T07:16:51.671Z,48.63
2023-02-26T07:17:54.418Z,48.45
2023-02-26T07:18:56.126Z,48.40
2023-02-26T07:19:58.891Z,48.69
2023-02-26T07:21:01.128Z,48.39
2023-02-26T07:22:03.843Z,48.43
2023-02-26T07:23:05.587Z,48.07
2023-02-26T07:24:09.412Z,47.92
2023-02-26T07:25:12.464Z,48.17
2023-02-26T07:26:17.582Z,48.02
2023-02-26T07:27:19.333Z,47.93
2023-02-26T07:28:22.134Z,47.94
2023-02-26T07:29:23.852Z,47.73
2023-02-26T07:30:27.114Z,48.07
2023-02-26T07:31:28.954Z,47.47
2023-02-26T07:32:31.889Z,47.58
2023-02-26T07:33:35.044Z,47.42
2023-02-26T07:34:37.882Z,47.35
2023-02-26T07:35:40.116Z,47.47
2023-02-26T07:36:42.890Z,47.24
2023-02-26T07:37:44.615Z,47.48
2023-02-26T07:38:47.314Z,47.50
2023-02-26T07:39:49.185Z,47.47
2023-02-26T07:40:51.852Z,47.21
2023-02-26T07:41:54.918Z,47.32
2023-02-26T07:42:57.695Z,47.25
2023-02-26T07:43:59.391Z,47.30
2023-02-26T07:45:02.416Z,46.92
2023-02-26T07:46:05.726Z,46.80
2023-02-26T07:47:07.630Z,46.88
2023-02-26T07:48:10.446Z,46.63
2023-02-26T07:49:13.114Z,46.85
2023-02-26T07:50:14.849Z,46.71
2023-02-26T07:51:17.578Z,46.35
2023-02-26T07:52:19.292Z,46.05
2023-02-26T07:53:22.332Z,46.73
2023-02-26T07:54:24.040Z,46.43
2023-02-26T07:55:27.718Z,46.03
2023-02-26T07:56:29.435Z,46.48
2023-02-26T07:57:33.416Z,46.02
2023-02-26T07:58:35.129Z,45.79
2023-02-26T07:59:37.814Z,46.30
2023-02-26T08:00:39.474Z,45.89
2023-02-26T08:01:42.232Z,45.98
2023-02-26T08:02:43.889Z,45.10
2023-02-26T08:03:46.603Z,45.95
2023-02-26T08:04:49.272Z,44.96
2023-02-26T08:05:51.001Z,45.51
2023-02-26T08:06:54.872Z,45.35
2023-02-26T08:07:57.572Z,44.74
2023-02-26T08:08:59.304Z,44.59
2023-02-26T08:10:02.005Z,44.33
2023-02-26T08:11:04.142Z,45.21
2023-02-26T08:12:06.843Z,45.16
2023-02-26T08:13:10.992Z,44.56
2023-02-26T08:14:12.841Z,44.85
2023-02-26T08:15:15.754Z,44.96
2023-02-26T08:16:17.536Z,44.81
2023-02-26T08:17:20.348Z,45.28
2023-02-26T08:18:22.093Z,45.46
2023-02-26T08:19:24.748Z,45.45
2023-02-26T08:20:26.473Z,45.44
2023-02-26T08:21:29.435Z,45.34
2023-02-26T08:22:31.241Z,45.65
2023-02-26T08:23:34.011Z,45.15
2023-02-26T08:24:35.955Z,45.40
2023-02-26T08:25:38.707Z,46.16
2023-02-26T08:26:40.687Z,44.30
2023-02-26T08:27:43.415Z,45.04
2023-02-26T08:28:47.271Z,44.60
2023-02-26T08:29:50.320Z,43.78
2023-02-26T08:30:53.083Z,43.52
2023-02-26T08:31:55.861Z,44.04
2023-02-26T08:32:57.581Z,43.86
2023-02-26T08:34:00.220Z,44.20
2023-02-26T08:35:02.193Z,44.38
2023-02-26T08:36:05.442Z,43.21
2023-02-26T08:37:09.290Z,42.99
2023-02-26T08:38:12.641Z,43.13
2023-02-26T08:39:14.418Z,42.55
2023-02-26T08:40:17.316Z,42.16
2023-02-26T08:41:19.018Z,41.58
2023-02-26T08:42:21.769Z,41.87
2023-02-26T08:43:30.398Z,42.15
2023-02-26T08:44:35.195Z,41.69
2023-02-26T08:45:37.926Z,41.40
2023-02-26T08:46:39.725Z,41.46
2023-02-26T08:47:55.492Z,41.97
2023-02-26T08:48:58.183Z,41.65
2023-02-26T08:50:01.034Z,41.45
2023-02-26T08:51:02.726Z,41.13
2023-02-26T08:52:05.457Z,41.28
2023-02-26T08:53:07.595Z,40.78
2023-02-26T08:54:10.315Z,41.16
2023-02-26T08:55:12.079Z,40.69
2023-02-26T08:56:15.069Z,39.91
2023-02-26T08:57:16.850Z,40.40
2023-02-26T08:58:20.230Z,40.13
2023-02-26T08:59:22.078Z,40.06
2023-02-26T09:00:26.405Z,39.81
2023-02-26T09:01:28.577Z,40.44
2023-02-26T09:02:31.499Z,39.46
2023-02-26T09:03:34.275Z,39.40
2023-02-26T09:04:35.947Z,40.05
2023-02-26T09:05:38.950Z,39.51
2023-02-26T09:06:40.689Z,39.46
2023-02-26T09:07:44.442Z,39.70
2023-02-26T09:08:46.164Z,39.20
2023-02-26T09:09:48.953Z,39.68
2023-02-26T09:10:50.621Z,39.53
2023-02-26T09:11:53.241Z,39.60
2023-02-26T09:12:55.064Z,40.00
2023-02-26T09:13:58.899Z,40.11
2023-02-26T09:15:00.614Z,39.57
2023-02-26T09:16:05.178Z,39.44
2023-02-26T09:17:06.935Z,39.42
2023-02-26T09:18:15.270Z,40.04
2023-02-26T09:19:16.969Z,39.69
2023-02-26T09:20:19.966Z,39.74
2023-02-26T09:21:21.800Z,39.60
2023-02-26T09:22:24.474Z,40.08
2023-02-26T09:23:27.251Z,40.01
2023-02-26T09:24:28.975Z,40.56
2023-02-26T09:25:31.748Z,39.64
2023-02-26T09:26:34.429Z,39.82
2023-02-26T09:27:36.314Z,39.65
2023-02-26T09:28:39.148Z,39.75
2023-02-26T09:29:40.816Z,39.88
2023-02-26T09:30:43.575Z,39.73
2023-02-26T09:31:46.971Z,39.26
2023-02-26T09:32:49.792Z,39.29
2023-02-26T09:33:51.554Z,38.97
2023-02-26T09:34:54.280Z,39.51
2023-02-26T09:35:55.971Z,39.47
2023-02-26T09:36:58.638Z,38.38
2023-02-26T09:38:00.313Z,39.03
2023-02-26T09:39:03.266Z,38.79
2023-02-26T09:40:06.215Z,38.42
2023-02-26T09:41:11.454Z,39.01
2023-02-26T09:42:24.266Z,38.41
2023-02-26T09:43:45.267Z,39.09
2023-02-26T09:44:48.667Z,38.57
2023-02-26T09:45:51.813Z,38.86
2023-02-26T09:47:02.312Z,38.69
2023-02-26T09:48:06.921Z,38.60
2023-02-26T09:49:19.155Z,38.13
2023-02-26T09:50:24.494Z,38.07
2023-02-26T09:51:27.147Z,38.22
2023-02-26T09:52:33.558Z,38.18
2023-02-26T09:53:38.728Z,37.89
2023-02-26T09:54:44.921Z,38.36
2023-02-26T09:55:50.209Z,37.68
2023-02-26T09:56:54.280Z,37.99
2023-02-26T09:58:00.373Z,37.77
2023-02-26T09:59:03.024Z,37.75
2023-02-26T10:00:11.909Z,37.94
2023-02-26T10:01:20.433Z,37.74
2023-02-26T10:02:34.109Z,37.74
2023-02-26T10:03:46.709Z,37.73
2023-02-26T10:04:51.494Z,37.85
2023-02-26T10:06:09.654Z,37.78
2023-02-26T10:07:19.062Z,37.24
2023-02-26T10:08:22.338Z,37.62
2023-02-26T10:09:34.538Z,37.74
2023-02-26T10:10:42.568Z,37.60
2023-02-26T10:11:51.272Z,37.69
2023-02-26T10:12:54.274Z,37.35
2023-02-26T10:13:58.959Z,37.47
2023-02-26T10:15:05.303Z,37.00
2023-02-26T10:16:12.702Z,36.92
2023-02-26T10:17:19.041Z,36.93
2023-02-26T10:18:27.373Z,36.87
2023-02-26T10:19:31.046Z,36.49
2023-02-26T10:20:39.121Z,36.20
2023-02-26T10:21:42.692Z,36.12
2023-02-26T10:22:48.734Z,36.06
2023-02-26T10:23:53.603Z,35.65
2023-02-26T10:24:59.391Z,35.42
2023-02-26T10:26:06.466Z,35.77
2023-02-26T10:27:14.584Z,35.55
2023-02-26T10:28:35.788Z,35.85
2023-02-26T10:29:43.612Z,36.18
2023-02-26T10:30:50.768Z,35.68
2023-02-26T10:32:02.107Z,35.90
2023-02-26T10:33:12.328Z,36.12
2023-02-26T10:34:23.016Z,36.15
2023-02-26T10:35:28.477Z,36.13
2023-02-26T10:36:36.352Z,36.26
2023-02-26T10:37:46.117Z,36.41
2023-02-26T10:38:51.162Z,36.46
2023-02-26T10:39:57.530Z,35.62
2023-02-26T10:41:02.483Z,35.74
2023-02-26T10:42:10.163Z,35.17
2023-02-26T10:43:16.108Z,35.14
2023-02-26T10:44:22.165Z,34.95
2023-02-26T10:45:31.250Z,35.18
2023-02-26T10:46:43.756Z,35.37
2023-02-26T10:47:51.801Z,34.73
2023-02-26T10:49:14.332Z,34.57
2023-02-26T10:50:22.346Z,34.97
2023-02-26T10:51:26.962Z,34.77
2023-02-26T10:52:32.510Z,34.86
2023-02-26T10:53:35.638Z,35.32
2023-02-26T10:54:40.392Z,35.38
2023-02-26T10:55:44.741Z,35.14
2023-02-26T10:56:46.760Z,35.05
2023-02-26T10:57:52.484Z,34.41
2023-02-26T10:58:54.939Z,34.56
2023-02-26T10:59:57.673Z,34.12
2023-02-26T11:00:59.418Z,34.34
2023-02-26T11:02:02.316Z,34.32
2023-02-26T11:03:05.614Z,34.32
2023-02-26T11:04:10.363Z,34.43
2023-02-26T11:05:18.146Z,34.90
2023-02-26T11:06:23.280Z,34.28
2023-02-26T11:07:25.785Z,33.91
2023-02-26T11:08:30.239Z,34.35
2023-02-26T11:09:34.279Z,34.32
2023-02-26T11:10:46.616Z,34.41
2023-02-26T11:11:52.188Z,34.61
2023-02-26T11:12:54.862Z,34.63
2023-02-26T11:13:57.176Z,34.16
2023-02-26T11:15:02.112Z,34.31
2023-02-26T11:16:07.733Z,34.28
2023-02-26T11:17:12.107Z,33.93
2023-02-26T11:18:18.344Z,33.74
2023-02-26T11:19:27.325Z,33.64
2023-02-26T11:20:38.184Z,34.78
2023-02-26T11:21:42.684Z,34.71
2023-02-26T11:22:49.257Z,34.60
2023-02-26T11:23:56.029Z,34.83
2023-02-26T11:24:59.082Z,35.37
2023-02-26T11:26:05.741Z,35.22
2023-02-26T11:27:13.520Z,35.91
2023-02-26T11:28:30.794Z,34.62
2023-02-26T11:29:38.401Z,33.77
2023-02-26T11:30:44.029Z,34.32
2023-02-26T11:31:48.466Z,34.31
2023-02-26T11:32:52.666Z,33.00
2023-02-26T11:33:59.398Z,33.11
2023-02-26T11:35:02.159Z,33.12
2023-02-26T11:36:11.086Z,32.39
2023-02-26T11:37:13.898Z,33.43
2023-02-26T11:38:19.773Z,33.06
2023-02-26T11:39:24.358Z,33.24
2023-02-26T11:40:34.186Z,32.53
2023-02-26T11:41:39.427Z,32.78
2023-02-26T11:42:44.957Z,33.44
2023-02-26T11:43:50.163Z,33.21
2023-02-26T11:44:52.192Z,33.74
2023-02-26T11:45:56.851Z,33.55
2023-02-26T11:46:59.506Z,33.24
2023-02-26T11:48:05.874Z,32.88
2023-02-26T11:49:11.720Z,32.84
2023-02-26T11:50:17.931Z,33.19
2023-02-26T11:51:24.497Z,32.48
2023-02-26T11:52:29.881Z,32.66
2023-02-26T11:53:35.496Z,31.89
2023-02-26T11:54:38.633Z,32.83
2023-02-26T11:55:47.990Z,32.81
2023-02-26T11:56:50.116Z,32.91
2023-02-26T11:57:55.020Z,32.58
2023-02-26T11:59:08.603Z,32.67
2023-02-26T12:00:19.485Z,32.63
2023-02-26T12:01:25.225Z,32.61
2023-02-26T12:02:34.866Z,32.56
2023-02-26T12:03:40.823Z,33.05
2023-02-26T12:04:45.662Z,32.46
2023-02-26T12:05:47.482Z,33.04
2023-02-26T12:06:53.229Z,32.11
2023-02-26T12:07:54.989Z,32.33
2023-02-26T12:08:57.982Z,32.62
2023-02-26T12:09:59.747Z,33.11
2023-02-26T12:11:13.557Z,32.55
2023-02-26T12:12:34.679Z,32.70
2023-02-26T12:13:44.138Z,31.61
2023-02-26T12:15:01.691Z,32.46
2023-02-26T12:16:08.504Z,32.86
2023-02-26T12:17:26.287Z,32.50
2023-02-26T12:18:39.401Z,33.44
2023-02-26T12:19:44.147Z,32.93
2023-02-26T12:20:56.463Z,32.45
2023-02-26T12:22:16.351Z,32.09
2023-02-26T12:23:39.447Z,31.53
2023-02-26T12:25:11.537Z,31.79
2023-02-26T12:26:25.867Z,31.74
2023-02-26T12:27:34.868Z,31.77
2023-02-26T12:28:53.479Z,31.09
2023-02-26T12:30:07.435Z,31.79
2023-02-26T12:31:37.330Z,30.86
2023-02-26T12:33:06.982Z,31.29
2023-02-26T12:34:22.243Z,30.99
2023-02-26T12:35:52.701Z,31.59
2023-02-26T12:37:10.004Z,30.86
2023-02-26T12:38:21.583Z,31.59
2023-02-26T12:39:38.458Z,31.62
2023-02-26T12:40:51.490Z,31.49
2023-02-26T12:42:04.116Z,32.50
2023-02-26T12:43:11.262Z,31.70
2023-02-26T12:44:25.074Z,30.89
2023-02-26T12:45:36.864Z,31.76
2023-02-26T12:46:52.789Z,30.99
2023-02-26T12:48:07.387Z,32.02
2023-02-26T12:49:33.210Z,31.26
2023-02-26T12:50:41.788Z,31.44
2023-02-26T12:51:54.580Z,31.24
2023-02-26T12:53:14.321Z,31.57
2023-02-26T12:54:36.662Z,31.34
2023-02-26T12:55:47.656Z,31.55
2023-02-26T12:57:10.759Z,31.50
2023-02-26T12:58:25.151Z,30.82
2023-02-26T12:59:59.318Z,31.87
2023-02-26T13:01:11.322Z,32.34
2023-02-26T13:02:30.175Z,31.80
2023-02-26T13:03:58.570Z,31.30
2023-02-26T13:05:19.052Z,31.90
2023-02-26T13:06:51.899Z,31.80
2023-02-26T13:08:02.890Z,31.97
2023-02-26T13:09:13.268Z,31.82
2023-02-26T13:10:20.786Z,31.62
2023-02-26T13:11:29.807Z,31.64
2023-02-26T13:12:37.948Z,31.64
2023-02-26T13:13:53.226Z,32.37
2023-02-26T13:15:03.260Z,32.39
2023-02-26T13:16:19.414Z,32.07
2023-02-26T13:17:28.227Z,32.71
2023-02-26T13:18:34.754Z,31.59
2023-02-26T13:19:44.224Z,30.89
2023-02-26T13:20:56.468Z,31.28
2023-02-26T13:22:01.063Z,31.33
2023-02-26T13:23:12.106Z,32.00
2023-02-26T13:24:18.346Z,31.99
2023-02-26T13:25:26.380Z,32.13
2023-02-26T13:26:29.363Z,32.16
2023-02-26T13:27:35.853Z,32.45
2023-02-26T13:28:42.637Z,31.98
2023-02-26T13:29:49.168Z,32.52
2023-02-26T13:30:53.657Z,31.74
2023-02-26T13:31:58.153Z,32.65
2023-02-26T13:33:01.916Z,31.97
2023-02-26T13:34:08.729Z,31.28
2023-02-26T13:35:19.893Z,31.86
2023-02-26T13:36:23.827Z,31.32
2023-02-26T13:37:28.364Z,32.31
2023-02-26T13:38:38.323Z,31.98
2023-02-26T13:39:47.391Z,31.29
2023-02-26T13:40:57.313Z,31.33
2023-02-26T13:42:03.150Z,31.41
2023-02-26T13:43:14.380Z,31.12
2023-02-26T13:44:27.458Z,31.62
2023-02-26T13:45:37.611Z,31.50
2023-02-26T13:46:55.598Z,31.57
2023-02-26T13:48:09.975Z,32.21
2023-02-26T13:49:21.887Z,31.48
2023-02-26T13:50:29.414Z,32.04
2023-02-26T13:51:35.748Z,32.33
2023-02-26T13:52:50.967Z,31.40
2023-02-26T13:53:59.555Z,31.75
2023-02-26T13:55:03.439Z,31.90
2023-02-26T13:56:13.617Z,31.82
2023-02-26T13:57:28.216Z,31.03
2023-02-26T13:58:35.404Z,30.78
2023-02-26T13:59:47.381Z,30.71
2023-02-26T14:01:00.333Z,30.95
2023-02-26T14:02:04.525Z,31.48
2023-02-26T14:03:12.962Z,31.71
2023-02-26T14:04:25.283Z,31.36
2023-02-26T14:05:51.146Z,31.73